Terminal Aerodrome Forecast
Issued by NWS Chicago, IL

Home | Current Version | Previous Version | Graphics & Text | Print | Product List | Glossary On
Versions: 1 2 3 4 5 6 7 8 9 10 11 12 13 14 15 16 17 18 19 20 21 22 23 24 25 26 27 28 29 30 31 32 33 34
000
FTUS43 KLOT 190300 AAA
TAFRFD
TAF AMD
KRFD 190317Z 1903/1924 21008KT P6SM BKN040
     FM190400 20008KT P6SM SCT040 BKN120
     FM190900 18011KT 3SM -SN SCT015 BKN030 OVC100
     FM191100 19011KT 1 1/2SM -SN SCT010 OVC015
      TEMPO 1911/1913 3/4SM -SN
     FM191400 25014G20KT P6SM -SHSN OVC020
     FM191900 27017G25KT P6SM VCSH OVC035=

USA.gov is the U.S. government's official web portal to all federal, state and local government web resources and services.